首页
METAR-TAF:

METAR-TAF

机场 :

科斯雷國際機場

科斯雷, 密克罗尼西亚群岛

纬度: 05-21N, 经度: 162-57E, 海拔: 3米

当前天气观测

该预报发布于1小时和8分钟前的23:50 UTC
风速23节,风向西南
温度 27°C
湿度 89%
气压 1012 hPa
能見度: 16.1公里
多云层高于1400英尺, 塔状积云.
多云层高于13000英尺
阴天层高于30000英尺

METAR: PTSA 202350Z 22023KT 10SM BKN014TCU BKN130 OVC300 27/25 A2987 RMK TCU SE-W LAST

时间: 11:58 (00:58 UTC)

预报

该预报发布于1小时和28分钟前的23:30 UTC
预报有效从21日的 00点(UTC)到 21日的 24点(UTC)
风速10节,风向
能見度: 10公里
多云层高于1600英尺
多云层高于13000英尺
附近有阵雨

TAF: PTSA 202330Z 2100/2124 18010KT P6SM VCSH BKN016 BKN130

超过4000个机场的气象观测和天气预报(METAR&TAF报告)。

可查询的气象台以黄色和红色小点在地图上表示。

将鼠标移到小点上方,可查看气象台名称。

然后点击查看天气观测和预报。

如需切换地图:点击带黑十字的绿色按钮放大地图;点击带横线的绿色按钮缩小地图;或者点击绿色箭头查看邻近地区的地图。


METAR-TAF: